Time;durP1;ratioP1;P1;durP2;ratioP2;P2;SDS_P1;SDS_P2;PMS_P1;PMS_P2;Temp;Humidity;BMP_temperature;BMP_pressure;BME280_temperature;BME280_humidity;BME280_pressure;Samples;Min_cycle;Max_cycle;Signal;HPM_P1;HPM_P2
2023/10/29 00:02:12;;;;;;;0.10;0.10;;;;;;;14.44;78.16;101083.34;5019038;28;20033;-88
2023/10/29 00:04:38;;;;;;;0.10;0.10;;;;;;;14.29;78.24;101063.41;5018886;28;20079;-89
2023/10/29 00:07:04;;;;;;;0.10;0.10;;;;;;;14.40;78.25;101084.44;5019083;28;20029;-89
2023/10/29 00:09:30;;;;;;;0.13;0.13;;;;;;;14.39;77.91;101094.97;5035385;28;20056;-89
2023/10/29 00:11:56;;;;;;;0.20;0.20;;;;;;;14.38;77.95;101096.72;5018693;28;20032;-88
2023/10/29 00:14:22;;;;;;;0.10;0.10;;;;;;;14.34;78.06;101087.41;5018671;28;20202;-88
2023/10/29 00:16:47;;;;;;;0.17;0.17;;;;;;;14.33;77.41;101099.56;5002235;28;20357;-88
2023/10/29 00:19:13;;;;;;;0.10;0.10;;;;;;;14.34;77.66;101103.84;5018767;28;20039;-89
2023/10/29 00:21:38;;;;;;;0.20;0.20;;;;;;;14.32;77.88;101097.06;5035171;28;20029;-89
2023/10/29 00:24:04;;;;;;;0.20;0.20;;;;;;;14.33;77.68;101093.53;5018816;28;20096;-90
2023/10/29 00:26:29;;;;;;;0.10;0.10;;;;;;;14.28;76.93;101092.97;5018315;28;20505;-89
2023/10/29 00:28:55;;;;;;;0.10;0.10;;;;;;;14.24;77.07;101099.25;5017894;28;20502;-89
2023/10/29 00:31:20;;;;;;;0.10;0.10;;;;;;;14.23;76.44;101106.22;5001606;28;20029;-88
2023/10/29 00:33:46;;;;;;;0.10;0.10;;;;;;;14.17;76.43;101092.75;5002009;28;20463;-89
2023/10/29 00:36:11;;;;;;;0.10;0.10;;;;;;;14.19;76.86;101101.28;5018531;28;20183;-88
2023/10/29 00:38:37;;;;;;;0.10;0.10;;;;;;;14.04;77.17;101085.59;5001937;28;20083;-89
2023/10/29 00:41:03;;;;;;;0.10;0.10;;;;;;;14.04;76.93;101085.59;5017964;28;20067;-88
2023/10/29 00:46:05;;;;;;;0.20;0.20;;;;;;;14.03;76.88;101081.31;5020794;28;20037;-89
2023/10/29 00:48:30;;;;;;;0.15;0.15;;;;;;;13.97;76.61;101086.88;5018561;28;20033;-89
2023/10/29 00:50:56;;;;;;;0.10;0.10;;;;;;;13.83;77.14;101088.56;5017909;28;20024;-88
2023/10/29 00:53:21;;;;;;;0.10;0.10;;;;;;;13.84;77.19;101092.84;5001628;28;20490;-89
2023/10/29 00:55:47;;;;;;;0.20;0.20;;;;;;;13.85;78.60;101089.31;5017733;28;20415;-89
2023/10/29 00:58:13;;;;;;;0.10;0.10;;;;;;;13.93;78.47;101098.38;5018154;28;20056;-89
2023/10/29 01:00:38;;;;;;;0.20;0.20;;;;;;;13.95;78.38;101099.13;5001619;28;20032;-89
2023/10/29 01:03:04;;;;;;;0.10;0.10;;;;;;;13.99;78.20;101092.84;5017895;28;20036;-89
2023/10/29 01:05:29;;;;;;;0.15;0.15;;;;;;;13.97;78.50;101105.09;5001546;28;20402;-89
2023/10/29 01:07:55;;;;;;;0.20;0.20;;;;;;;13.93;78.48;101090.56;5017767;28;20392;-89
2023/10/29 01:10:20;;;;;;;0.20;0.20;;;;;;;13.93;78.02;101090.56;5017543;28;20078;-89
2023/10/29 01:12:46;;;;;;;0.10;0.10;;;;;;;13.82;78.35;101087.72;5001450;28;20040;-89
2023/10/29 01:15:11;;;;;;;0.10;0.10;;;;;;;13.90;78.54;101098.53;5001148;28;20068;-89
2023/10/29 01:17:37;;;;;;;0.20;0.20;;;;;;;13.93;78.52;101107.94;5017811;28;20029;-89
2023/10/29 01:20:04;;;;;;;0.20;0.20;;;;;;;13.93;78.30;101106.16;5001546;28;20487;-88
2023/10/29 01:22:29;;;;;;;0.20;0.20;;;;;;;13.84;78.40;101106.69;5001484;28;20084;-88
2023/10/29 01:24:54;;;;;;;0.10;0.10;;;;;;;13.83;78.33;101115.41;5017458;28;20510;-89
2023/10/29 01:27:21;;;;;;;0.10;0.10;;;;;;;13.82;78.01;101105.09;5001303;28;20410;-90
2023/10/29 01:29:47;;;;;;;0.10;0.10;;;;;;;13.57;78.53;101082.16;5001608;28;20025;-90
2023/10/29 01:32:12;;;;;;;0.10;0.10;;;;;;;13.76;78.49;101116.66;5033675;28;20067;-89
2023/10/29 01:34:37;;;;;;;0.20;0.20;;;;;;;13.69;78.71;101108.38;5001209;28;20095;-89
2023/10/29 01:37:03;;;;;;;0.10;0.10;;;;;;;13.66;78.71;101107.66;5017374;28;20533;-89
2023/10/29 01:39:28;;;;;;;0.10;0.10;;;;;;;13.53;79.17;101117.06;5017266;28;20028;-89
2023/10/29 01:41:56;;;;;;;0.10;0.10;;;;;;;13.55;79.40;101121.25;5000793;28;20036;-89
2023/10/29 01:44:22;;;;;;;0.20;0.20;;;;;;;13.54;79.42;101129.13;5017864;28;21018;-89
2023/10/29 01:46:48;;;;;;;0.10;0.10;;;;;;;13.41;78.94;101129.78;5000895;28;20074;-89
2023/10/29 01:49:13;;;;;;;0.20;0.20;;;;;;;13.35;78.30;101124.91;5017303;28;20029;-90
2023/10/29 01:51:39;;;;;;;0.10;0.10;;;;;;;13.38;78.42;101129.97;5000615;28;20052;-89
2023/10/29 01:54:04;;;;;;;0.20;0.20;;;;;;;13.32;79.14;101127.66;5000555;28;20036;-88
2023/10/29 01:56:30;;;;;;;0.10;0.10;;;;;;;13.30;79.70;101132.13;5017573;28;20029;-89
2023/10/29 01:58:55;;;;;;;0.10;0.10;;;;;;;13.39;79.44;101131.63;5017085;28;20048;-89
2023/10/29 02:01:21;;;;;;;0.10;0.10;;;;;;;13.34;78.89;101128.44;5000714;28;20029;-89
2023/10/29 02:03:46;;;;;;;0.10;0.10;;;;;;;13.30;79.37;101136.47;5016883;28;20029;-89
2023/10/29 02:06:18;;;;;;;0.10;0.10;;;;;;;13.35;79.73;101134.47;5016733;28;20036;-89
2023/10/29 02:08:44;;;;;;;0.10;0.10;;;;;;;13.34;79.20;101135.38;5017331;28;20489;-89
2023/10/29 02:11:11;;;;;;;0.10;0.10;;;;;;;13.25;79.25;101130.66;5017158;28;20060;-90
2023/10/29 02:13:36;;;;;;;0.10;0.10;;;;;;;13.25;79.29;101139.28;5016786;28;20045;-90
2023/10/29 02:16:03;;;;;;;0.10;0.10;;;;;;;13.30;79.35;101139.91;5016668;28;20037;-89
2023/10/29 02:18:29;;;;;;;0.10;0.10;;;;;;;13.22;79.44;101117.84;5017493;28;20036;-88
2023/10/29 02:20:54;;;;;;;0.10;0.10;;;;;;;13.29;79.80;101134.81;5000483;28;20036;-89
2023/10/29 02:23:20;;;;;;;0.20;0.20;;;;;;;13.25;79.66;101141.91;5000017;28;20025;-89
2023/10/29 02:25:45;;;;;;;0.20;0.20;;;;;;;13.13;80.30;101126.91;5000574;28;20033;-89
2023/10/29 02:28:11;;;;;;;0.10;0.10;;;;;;;13.19;80.14;101150.88;5000519;28;20556;-90
2023/10/29 02:30:36;;;;;;;0.10;0.10;;;;;;;13.26;80.19;101153.97;5033190;28;20052;-89
2023/10/29 02:33:02;;;;;;;0.10;0.10;;;;;;;13.18;80.35;101153.50;5000372;28;20442;-89
2023/10/29 02:35:28;;;;;;;0.10;0.10;;;;;;;13.18;80.26;101148.31;5000523;28;20032;-89
2023/10/29 02:37:53;;;;;;;0.10;0.10;;;;;;;13.22;79.55;101152.47;5016574;28;20505;-88
2023/10/29 02:40:19;;;;;;;0.10;0.10;;;;;;;13.24;79.08;101158.41;5000367;28;20029;-89
2023/10/29 02:42:45;;;;;;;0.10;0.10;;;;;;;13.09;79.14;101143.59;5000490;28;20048;-89
2023/10/29 02:45:10;;;;;;;0.10;0.10;;;;;;;13.13;78.57;101145.94;5016921;28;20108;-88
2023/10/29 02:47:36;;;;;;;0.20;0.20;;;;;;;13.11;78.51;101152.13;4999949;28;20029;-89
2023/10/29 02:50:01;;;;;;;0.10;0.10;;;;;;;13.10;78.49;101151.31;5016835;28;20025;-89
2023/10/29 02:52:27;;;;;;;0.10;0.10;;;;;;;12.99;78.46;101142.38;5016573;28;20036;-88
2023/10/29 02:54:52;;;;;;;0.10;0.10;;;;;;;13.09;78.33;101146.19;5036826;28;20021;-88
2023/10/29 02:57:18;;;;;;;0.10;0.10;;;;;;;13.02;77.99;101152.59;5020274;28;20036;-88
2023/10/29 02:59:43;;;;;;;0.10;0.10;;;;;;;12.96;78.65;101153.75;5003972;28;20025;-89
2023/10/29 03:02:09;;;;;;;0.20;0.20;;;;;;;12.93;79.10;101148.72;5020122;28;20036;-90
2023/10/29 03:04:34;;;;;;;0.10;0.10;;;;;;;12.93;78.75;101149.53;5020154;28;20043;-90
2023/10/29 03:06:59;;;;;;;0.10;0.10;;;;;;;12.87;78.71;101144.66;5019972;28;20020;-90
2023/10/29 03:09:25;;;;;;;0.10;0.10;;;;;;;12.97;78.57;101158.00;5020018;28;20024;-89
2023/10/29 03:11:50;;;;;;;0.10;0.10;;;;;;;12.94;78.83;101147.78;5019985;28;20036;-88
2023/10/29 03:14:16;;;;;;;0.10;0.10;;;;;;;12.88;79.01;101159.34;5003521;28;20052;-89
2023/10/29 03:16:41;;;;;;;0.20;0.20;;;;;;;12.89;78.44;101160.19;5003482;28;20036;-89
2023/10/29 03:19:07;;;;;;;0.20;0.20;;;;;;;12.92;79.33;101165.22;5019526;28;20033;-89
2023/10/29 03:21:32;;;;;;;0.10;0.10;;;;;;;12.74;79.94;101169.56;5019871;28;20491;-88
2023/10/29 03:23:57;;;;;;;0.20;0.20;;;;;;;12.61;79.43;101168.47;5019909;28;20032;-89
2023/10/29 03:26:23;;;;;;;0.20;0.20;;;;;;;12.63;79.55;101157.09;5003468;28;20029;-89
2023/10/29 03:28:49;;;;;;;0.20;0.20;;;;;;;12.73;79.60;101170.47;5003513;28;20422;-89
2023/10/29 03:31:15;;;;;;;0.10;0.10;;;;;;;12.64;79.88;101169.16;5003412;28;20387;-89
2023/10/29 03:33:40;;;;;;;0.10;0.10;;;;;;;12.66;79.86;101176.88;5019804;28;20053;-89
2023/10/29 03:36:07;;;;;;;0.10;0.10;;;;;;;12.58;80.10;101179.84;5019539;28;20032;-88
2023/10/29 03:38:32;;;;;;;0.10;0.10;;;;;;;12.62;80.03;101188.34;5019552;28;20483;-89
2023/10/29 03:40:58;;;;;;;0.10;0.10;;;;;;;12.71;79.72;101190.47;5036034;28;20024;-89
2023/10/29 03:43:23;;;;;;;0.20;0.20;;;;;;;12.67;79.67;101198.47;5003308;28;20025;-90
2023/10/29 03:45:48;;;;;;;0.20;0.20;;;;;;;12.62;79.35;101191.75;5019524;28;20036;-90
2023/10/29 03:48:15;;;;;;;0.10;0.10;;;;;;;12.47;79.23;101189.06;5003119;28;20498;-89
2023/10/29 03:50:43;;;;;;;0.10;0.10;;;;;;;12.52;79.51;101190.53;5003161;28;20120;-88
2023/10/29 03:53:09;;;;;;;0.10;0.10;;;;;;;12.49;79.61;101188.09;5035823;28;20025;-89
2023/10/29 03:55:37;;;;;;;0.10;0.10;;;;;;;12.59;79.21;101196.28;5002728;28;20532;-89
2023/10/29 03:58:04;;;;;;;0.20;0.20;;;;;;;12.53;78.72;101191.38;5019162;28;20025;-91
2023/10/29 04:00:29;;;;;;;0.10;0.10;;;;;;;12.48;79.42;101188.97;5003146;28;20037;-88
2023/10/29 04:02:55;;;;;;;0.10;0.10;;;;;;;12.38;79.56;101177.34;5002868;28;20083;-90
2023/10/29 04:05:21;;;;;;;0.10;0.10;;;;;;;12.44;79.07;101191.81;5018909;28;20078;-90
2023/10/29 04:07:47;;;;;;;0.10;0.10;;;;;;;12.35;79.08;101186.13;5002684;28;20035;-88
2023/10/29 04:10:12;;;;;;;0.10;0.10;;;;;;;12.33;79.54;101190.56;5002635;28;20116;-89
2023/10/29 04:12:38;;;;;;;0.10;0.10;;;;;;;12.37;80.26;101190.41;5018941;28;20036;-88
2023/10/29 04:15:04;;;;;;;0.10;0.10;;;;;;;12.44;80.29;101190.03;4986576;28;20072;-89
2023/10/29 04:17:30;;;;;;;0.20;0.20;;;;;;;12.40;80.47;101191.13;4999123;28;20033;-89
2023/10/29 04:19:56;;;;;;;0.10;0.10;;;;;;;12.53;79.41;101183.59;4983214;28;20109;-89
2023/10/29 04:22:22;;;;;;;0.20;0.20;;;;;;;12.49;79.15;101195.03;4999410;28;20044;-90
2023/10/29 04:24:48;;;;;;;0.10;0.10;;;;;;;12.46;78.87;101200.34;4983022;28;20033;-91
2023/10/29 04:27:13;;;;;;;0.15;0.15;;;;;;;12.44;79.00;101190.03;4982982;28;20143;-88
2023/10/29 04:29:39;;;;;;;0.10;0.10;;;;;;;12.41;79.21;101204.94;4982528;28;20427;-89
2023/10/29 04:32:04;;;;;;;0.10;0.10;;;;;;;12.43;79.47;101201.34;4998946;28;20030;-89
2023/10/29 04:34:30;;;;;;;0.20;0.20;;;;;;;12.16;79.74;101161.97;4998984;28;20076;-89
2023/10/29 04:36:55;;;;;;;0.20;0.20;;;;;;;12.45;79.02;101199.50;5015233;28;20491;-89
2023/10/29 04:39:21;;;;;;;0.10;0.10;;;;;;;12.38;79.36;101200.72;4982827;28;20384;-88
2023/10/29 04:41:46;;;;;;;0.10;0.10;;;;;;;12.40;79.37;101205.84;4982753;28;20083;-91
2023/10/29 04:44:12;;;;;;;0.10;0.10;;;;;;;12.38;79.38;101205.06;5015021;28;20029;-89
2023/10/29 04:46:38;;;;;;;0.20;0.20;;;;;;;12.43;79.48;101213.47;4998489;28;20029;-89
2023/10/29 04:49:03;;;;;;;0.13;0.13;;;;;;;12.41;78.98;101213.56;4998950;28;20036;-89
2023/10/29 04:51:30;;;;;;;0.10;0.10;;;;;;;12.34;79.37;101223.38;4982398;28;20068;-90
2023/10/29 04:53:55;;;;;;;0.10;0.10;;;;;;;12.30;79.14;101215.81;5015109;28;20116;-89
2023/10/29 04:56:21;;;;;;;0.15;0.15;;;;;;;12.46;78.40;101226.31;4998674;28;20180;-89
2023/10/29 04:58:46;;;;;;;0.20;0.20;;;;;;;12.34;78.65;101233.75;4982392;28;20415;-89
2023/10/29 05:01:13;;;;;;;0.20;0.20;;;;;;;12.14;78.57;101215.69;4998439;28;20064;-89
2023/10/29 05:03:39;;;;;;;0.20;0.20;;;;;;;12.25;78.96;101246.31;5015204;28;20041;-89
2023/10/29 05:06:04;;;;;;;0.20;0.20;;;;;;;12.26;78.98;101248.81;4982401;28;20021;-89
2023/10/29 05:08:30;;;;;;;0.10;0.10;;;;;;;12.16;78.50;101247.56;4982174;28;20029;-90
2023/10/29 05:10:56;;;;;;;0.15;0.15;;;;;;;12.06;79.04;101239.34;4981901;28;20033;-89
2023/10/29 05:13:21;;;;;;;0.20;0.20;;;;;;;12.09;79.21;101251.34;5000290;28;20033;-90
2023/10/29 05:15:47;;;;;;;0.20;0.20;;;;;;;11.99;79.46;101255.25;5000584;28;20029;-90
2023/10/29 05:18:12;;;;;;;0.10;0.10;;;;;;;12.06;79.02;101254.09;5001616;28;20033;-89
2023/10/29 05:20:38;;;;;;;0.10;0.10;;;;;;;12.03;79.43;101259.41;5017825;28;20029;-89
2023/10/29 05:23:03;;;;;;;0.20;0.20;;;;;;;12.00;79.57;101249.19;5017422;28;20506;-89
2023/10/29 05:25:30;;;;;;;0.10;0.10;;;;;;;11.98;79.71;101269.13;5001165;28;20029;-88
2023/10/29 05:27:56;;;;;;;0.13;0.13;;;;;;;11.94;79.53;101265.84;5017789;28;20104;-89
2023/10/29 05:30:21;;;;;;;0.10;0.10;;;;;;;12.06;79.09;101282.59;5001010;28;20124;-88
2023/10/29 05:32:47;;;;;;;0.20;0.20;;;;;;;12.13;79.05;101315.16;5001005;28;20032;-88
2023/10/29 05:35:13;;;;;;;0.20;0.20;;;;;;;12.04;78.47;101303.44;5017260;28;20395;-88
2023/10/29 05:37:38;;;;;;;0.20;0.20;;;;;;;12.09;78.30;101321.38;5017252;28;20402;-89
2023/10/29 05:40:04;;;;;;;0.20;0.20;;;;;;;11.78;78.15;101278.59;5017591;28;20033;-89
2023/10/29 05:42:33;;;;;;;0.13;0.13;;;;;;;12.01;78.30;101332.09;5017425;28;20103;-89
2023/10/29 05:44:59;;;;;;;0.20;0.20;;;;;;;11.93;78.88;101317.78;5017369;28;20036;-89
2023/10/29 05:47:24;;;;;;;0.20;0.20;;;;;;;11.91;79.24;101335.16;5017333;28;20033;-89
2023/10/29 05:49:50;;;;;;;0.20;0.20;;;;;;;11.95;78.79;101339.28;5017315;28;20024;-90
2023/10/29 05:52:15;;;;;;;0.20;0.20;;;;;;;12.00;78.85;101347.72;5017170;28;20082;-90
2023/10/29 05:54:41;;;;;;;0.10;0.10;;;;;;;12.02;79.14;101356.28;5017540;28;20033;-90
2023/10/29 05:57:06;;;;;;;0.17;0.17;;;;;;;11.80;79.13;101312.28;5017301;28;20024;-89
2023/10/29 05:59:32;;;;;;;0.10;0.10;;;;;;;12.06;79.04;101347.44;5033236;28;20052;-89
2023/10/29 06:01:58;;;;;;;0.10;0.10;;;;;;;12.27;78.95;101350.84;5017176;28;20032;-88
2023/10/29 06:04:24;;;;;;;0.10;0.10;;;;;;;12.27;79.60;101345.66;5000813;28;20120;-90
2023/10/29 06:06:49;;;;;;;0.10;0.10;;;;;;;12.38;79.58;101343.41;5017057;28;20032;-90
2023/10/29 06:09:15;;;;;;;0.20;0.20;;;;;;;12.40;79.72;101340.78;5016996;28;20047;-88
2023/10/29 06:11:41;;;;;;;0.10;0.10;;;;;;;12.49;79.84;101366.31;5000553;28;20025;-90
2023/10/29 06:14:07;;;;;;;0.10;0.10;;;;;;;12.63;79.17;101374.31;5000330;28;20048;-89
2023/10/29 06:16:32;;;;;;;0.10;0.10;;;;;;;12.64;79.63;101391.56;5016836;28;20028;-90
2023/10/29 06:18:58;;;;;;;0.20;0.20;;;;;;;12.67;79.53;101380.19;5017206;28;20029;-89
2023/10/29 06:21:23;;;;;;;0.20;0.20;;;;;;;12.81;78.80;101380.41;5000803;28;20512;-88
2023/10/29 06:23:49;;;;;;;0.10;0.10;;;;;;;12.73;78.63;101359.16;5016814;28;20025;-89
2023/10/29 06:26:15;;;;;;;0.20;0.20;;;;;;;12.77;78.99;101382.28;5017268;28;20036;-89
2023/10/29 06:28:40;;;;;;;0.20;0.20;;;;;;;12.83;78.76;101382.03;5020264;28;20025;-90
2023/10/29 06:31:06;;;;;;;0.32;0.20;;;;;;;12.92;78.07;101386.78;5020939;28;20032;-90
2023/10/29 06:33:31;;;;;;;0.20;0.20;;;;;;;12.87;78.64;101375.75;5020788;28;20067;-90
2023/10/29 06:35:57;;;;;;;0.20;0.20;;;;;;;12.99;79.14;101391.72;5020529;28;20483;-90
2023/10/29 06:38:26;;;;;;;0.20;0.20;;;;;;;13.04;79.04;101395.75;5020909;28;20083;-89
2023/10/29 06:40:51;;;;;;;0.20;0.20;;;;;;;13.16;79.20;101394.34;5004452;28;20033;-90
2023/10/29 06:43:17;;;;;;;0.20;0.20;;;;;;;13.11;78.25;101386.78;5020440;28;20505;-90
2023/10/29 06:45:42;;;;;;;0.15;0.15;;;;;;;13.11;78.99;101385.94;5020531;28;20032;-89
2023/10/29 06:48:07;;;;;;;0.15;0.15;;;;;;;13.14;79.18;101375.38;5003891;28;20048;-88
2023/10/29 06:50:33;;;;;;;0.10;0.10;;;;;;;13.23;79.34;101380.19;5020318;28;20029;-90
2023/10/29 06:52:59;;;;;;;0.20;0.20;;;;;;;13.33;79.16;101383.19;5003965;28;20379;-88
2023/10/29 06:55:25;;;;;;;0.20;0.20;;;;;;;13.43;79.54;101392.22;5020521;28;20033;-90
2023/10/29 06:57:50;;;;;;;0.20;0.20;;;;;;;13.55;79.17;101388.16;5020030;28;20064;-90
2023/10/29 07:00:16;;;;;;;0.10;0.10;;;;;;;13.67;77.90;101384.97;5020481;28;20029;-88
2023/10/29 07:02:41;;;;;;;0.10;0.10;;;;;;;13.78;77.73;101399.13;5003835;28;20418;-90
2023/10/29 07:05:07;;;;;;;0.20;0.20;;;;;;;13.75;77.88;101382.81;5003806;28;20442;-90
2023/10/29 07:07:34;;;;;;;0.10;0.10;;;;;;;13.93;78.65;101397.50;5020542;28;20032;-88
2023/10/29 07:10:01;;;;;;;0.20;0.20;;;;;;;13.96;78.26;101394.75;5020261;28;20021;-89
2023/10/29 07:12:27;;;;;;;0.20;0.20;;;;;;;14.16;78.03;101406.75;5019946;28;20036;-89
2023/10/29 07:14:52;;;;;;;0.20;0.20;;;;;;;14.35;77.21;101409.22;5019643;28;20049;-89
2023/10/29 07:17:18;;;;;;;0.10;0.10;;;;;;;14.56;76.85;101418.56;5020040;28;20032;-89
2023/10/29 07:19:43;;;;;;;0.20;0.20;;;;;;;14.61;77.04;101421.75;5020080;28;20083;-89
2023/10/29 07:22:09;;;;;;;0.20;0.20;;;;;;;14.71;77.10;101418.66;5020047;28;20099;-89
2023/10/29 07:24:35;;;;;;;0.20;0.20;;;;;;;14.90;75.28;101421.94;5019287;28;20032;-88
2023/10/29 07:27:02;;;;;;;0.10;0.10;;;;;;;14.99;74.44;101421.44;5019523;28;20059;-88
2023/10/29 07:29:27;;;;;;;0.20;0.20;;;;;;;15.04;73.96;101429.00;5019347;28;20494;-88
2023/10/29 07:31:53;;;;;;;0.10;0.10;;;;;;;15.01;74.20;101409.19;5019182;28;20036;-88
2023/10/29 07:34:18;;;;;;;0.10;0.10;;;;;;;15.14;73.77;101411.94;5019490;28;20032;-90
2023/10/29 07:36:44;;;;;;;0.20;0.20;;;;;;;15.25;73.58;101404.38;5019821;28;20045;-89
2023/10/29 07:39:10;;;;;;;0.20;0.20;;;;;;;15.35;73.17;101378.63;5002503;28;20025;-90
2023/10/29 07:41:36;;;;;;;0.10;0.10;;;;;;;15.32;72.54;101392.66;5018943;28;20036;-89
2023/10/29 07:44:01;;;;;;;0.20;0.20;;;;;;;15.47;72.66;101406.63;5003181;28;20029;-88
2023/10/29 07:46:26;;;;;;;0.10;0.10;;;;;;;15.59;72.07;101400.69;5019030;28;20033;-89
2023/10/29 07:48:52;;;;;;;0.13;0.13;;;;;;;15.74;71.35;101405.06;5018978;28;20486;-88
2023/10/29 07:51:17;;;;;;;0.20;0.20;;;;;;;15.71;70.16;101409.59;5018976;28;20076;-88
2023/10/29 07:53:43;;;;;;;0.10;0.10;;;;;;;15.87;69.88;101412.16;5018896;28;20088;-89
2023/10/29 07:56:12;;;;;;;0.10;0.10;;;;;;;16.00;69.69;101416.56;5019022;28;20078;-89
2023/10/29 07:58:38;;;;;;;0.20;0.20;;;;;;;16.12;68.70;101415.00;5036193;28;21545;-89
2023/10/29 08:01:09;;;;;;;0.10;0.10;;;;;;;16.24;67.19;101418.66;5019050;28;20033;-91
2023/10/29 08:03:35;;;;;;;0.20;0.20;;;;;;;16.34;67.28;101410.19;5002708;28;20450;-89
2023/10/29 08:06:00;;;;;;;0.10;0.10;;;;;;;16.44;67.50;101423.53;5002504;28;20063;-88
2023/10/29 08:08:26;;;;;;;0.20;0.20;;;;;;;16.57;67.47;101421.00;5035374;28;20104;-91
2023/10/29 08:10:51;;;;;;;0.10;0.10;;;;;;;16.73;67.26;101421.78;5018862;28;20067;-90
2023/10/29 08:13:16;;;;;;;0.10;0.10;;;;;;;16.78;66.88;101419.69;5018603;28;20036;-90
2023/10/29 08:15:42;;;;;;;0.10;0.10;;;;;;;16.84;66.24;101423.72;5018482;28;20029;-89
2023/10/29 08:18:07;;;;;;;0.10;0.10;;;;;;;17.03;66.29;101428.63;5018772;28;20033;-88
2023/10/29 08:20:33;;;;;;;0.20;0.20;;;;;;;17.16;63.86;101434.75;5018540;28;20036;-89
2023/10/29 08:22:58;;;;;;;0.10;0.10;;;;;;;17.32;63.70;101427.59;5018482;28;20033;-89
2023/10/29 08:25:24;;;;;;;0.10;0.10;;;;;;;17.30;65.43;101415.53;5018083;28;20032;-88
2023/10/29 08:27:49;;;;;;;0.10;0.10;;;;;;;17.50;63.70;101430.78;5002049;28;20479;-89
2023/10/29 08:30:15;;;;;;;0.10;0.10;;;;;;;17.60;63.65;101431.88;5018677;28;20037;-89
2023/10/29 08:32:40;;;;;;;0.20;0.20;;;;;;;17.70;63.09;101442.63;5018000;28;20469;-89
2023/10/29 08:35:07;;;;;;;0.10;0.10;;;;;;;17.69;63.33;101438.28;5018135;28;20098;-90
2023/10/29 08:37:34;;;;;;;0.10;0.10;;;;;;;17.83;62.87;101437.41;5034563;28;20076;-88
2023/10/29 08:39:59;;;;;;;0.10;0.10;;;;;;;17.98;62.26;101439.00;5001828;28;20124;-90
2023/10/29 08:42:29;;;;;;;0.10;0.10;;;;;;;18.09;60.68;101430.41;5001635;28;20116;-89
2023/10/29 08:44:56;;;;;;;0.10;0.10;;;;;;;18.25;60.38;101441.53;5018383;28;20056;-89
2023/10/29 08:47:22;;;;;;;0.20;0.20;;;;;;;18.38;60.33;101442.34;5001732;28;20020;-89
2023/10/29 08:49:47;;;;;;;0.10;0.10;;;;;;;18.50;59.57;101452.00;5001315;28;20059;-89
2023/10/29 08:52:14;;;;;;;0.10;0.10;;;;;;;18.62;59.04;101448.53;5017445;28;20028;-90
2023/10/29 08:54:39;;;;;;;0.20;0.20;;;;;;;18.67;59.83;101448.22;5017812;28;20486;-90
2023/10/29 08:57:05;;;;;;;0.10;0.10;;;;;;;18.84;59.53;101453.13;5017626;28;20063;-89
2023/10/29 08:59:31;;;;;;;0.17;0.17;;;;;;;18.89;59.95;101452.84;5034164;28;20057;-90
2023/10/29 09:01:57;;;;;;;0.10;0.10;;;;;;;18.92;59.18;101452.59;5017782;28;20083;-90
2023/10/29 09:04:22;;;;;;;0.10;0.10;;;;;;;18.98;59.69;101454.81;5017696;28;20183;-90
2023/10/29 09:06:48;;;;;;;0.10;0.10;;;;;;;19.06;61.25;101457.69;5034314;28;20033;-90
2023/10/29 09:09:14;;;;;;;0.13;0.13;;;;;;;19.09;61.31;101454.03;5001197;28;20028;-90
2023/10/29 09:11:39;;;;;;;0.20;0.20;;;;;;;19.07;59.98;101448.88;5017498;28;20495;-90
2023/10/29 09:14:07;;;;;;;0.10;0.10;;;;;;;19.16;58.53;101455.25;5017278;28;20053;-89
2023/10/29 09:16:33;;;;;;;0.20;0.20;;;;;;;19.23;58.09;101446.00;5018268;28;20088;-89
2023/10/29 09:18:59;;;;;;;0.10;0.10;;;;;;;19.47;57.04;101453.88;5017320;28;20032;-88
2023/10/29 09:21:24;;;;;;;0.20;0.20;;;;;;;19.60;57.23;101443.34;5030095;28;20037;-89
2023/10/29 09:23:50;;;;;;;0.10;0.10;;;;;;;19.65;55.59;101442.03;5036326;28;20029;-89
2023/10/29 09:26:16;;;;;;;0.10;0.10;;;;;;;19.69;55.74;101443.50;5020479;28;20413;-90
2023/10/29 09:28:42;;;;;;;0.20;0.20;;;;;;;19.85;55.77;101437.09;5037101;28;20047;-90
2023/10/29 09:31:08;;;;;;;0.20;0.20;;;;;;;19.92;55.64;101443.56;5036967;28;20498;-89
2023/10/29 09:33:34;;;;;;;0.10;0.10;;;;;;;19.97;55.25;101454.56;5020699;28;20037;-89
2023/10/29 09:36:00;;;;;;;0.20;0.20;;;;;;;20.08;54.85;101449.34;5036842;28;20036;-88
2023/10/29 09:38:25;;;;;;;0.10;0.10;;;;;;;20.16;54.58;101440.88;5036469;28;20039;-89
2023/10/29 09:40:51;;;;;;;0.10;0.10;;;;;;;20.21;54.44;101436.09;5036875;28;20025;-90
2023/10/29 09:43:16;;;;;;;0.10;0.10;;;;;;;20.37;54.33;101438.41;5036553;28;20039;-91
2023/10/29 09:45:43;;;;;;;0.10;0.10;;;;;;;20.47;53.70;101437.59;5019940;28;20044;-88
2023/10/29 09:48:09;;;;;;;0.17;0.17;;;;;;;20.54;51.94;101430.06;5020557;28;20132;-89
2023/10/29 09:50:34;;;;;;;0.10;0.10;;;;;;;20.69;51.96;101441.19;5036588;28;20033;-91
2023/10/29 09:53:01;;;;;;;0.10;0.10;;;;;;;20.67;51.58;101438.69;5036293;28;20029;-89
2023/10/29 09:55:26;;;;;;;0.20;0.20;;;;;;;20.62;51.40;101432.94;5036779;28;20021;-89
2023/10/29 09:57:52;;;;;;;0.20;0.20;;;;;;;20.85;51.55;101434.59;5036697;28;20039;-90
2023/10/29 10:00:18;;;;;;;0.20;0.20;;;;;;;20.93;51.71;101436.59;5036562;28;20070;-89
2023/10/29 10:02:51;;;;;;;0.10;0.10;;;;;;;20.98;51.33;101416.03;5035943;28;20561;-88
2023/10/29 10:05:21;;;;;;;0.20;0.20;;;;;;;21.10;50.13;101420.31;5036636;28;20103;-88
2023/10/29 10:07:47;;;;;;;0.10;0.10;;;;;;;21.13;49.70;101416.56;5020408;28;20414;-88
2023/10/29 10:10:13;;;;;;;0.20;0.20;;;;;;;21.41;49.55;101420.47;5036267;28;20039;-91
2023/10/29 10:12:49;;;;;;;0.10;0.10;;;;;;;21.51;49.01;101420.56;5019881;28;20025;-89
2023/10/29 10:15:16;;;;;;;0.10;0.10;;;;;;;21.50;49.50;101408.34;5019540;28;20055;-89
2023/10/29 10:17:51;;;;;;;0.20;0.20;;;;;;;21.74;48.48;101411.59;5020084;28;20027;-90
2023/10/29 10:20:19;;;;;;;0.20;0.20;;;;;;;21.89;48.37;101405.03;5020717;28;20034;-89
2023/10/29 10:22:45;;;;;;;0.10;0.10;;;;;;;21.82;47.15;101395.97;5036244;28;20032;-90
2023/10/29 10:25:18;;;;;;;0.10;0.10;;;;;;;21.90;46.35;101396.16;5036429;28;20025;-89
2023/10/29 10:27:51;;;;;;;0.10;0.10;;;;;;;22.11;46.87;101400.59;5036687;28;20023;-90
2023/10/29 10:30:43;;;;;;;0.20;0.20;;;;;;;22.18;48.11;101399.13;5036146;28;20029;-89
2023/10/29 10:33:12;;;;;;;0.10;0.10;;;;;;;22.24;47.47;101388.91;5050426;28;20033;-89
2023/10/29 10:35:45;;;;;;;0.20;0.20;;;;;;;22.33;46.58;101388.09;5052556;28;20479;-89
2023/10/29 10:38:11;;;;;;;0.20;0.20;;;;;;;22.38;46.67;101371.88;5036499;28;20099;-89
2023/10/29 10:40:37;;;;;;;0.20;0.20;;;;;;;22.53;44.93;101378.47;5036269;28;20044;-91
2023/10/29 10:43:03;;;;;;;0.20;0.20;;;;;;;22.67;44.39;101379.03;5036352;28;20718;-90
2023/10/29 10:45:29;;;;;;;0.10;0.10;;;;;;;22.68;45.04;101383.34;5052880;28;20033;-88
2023/10/29 10:47:56;;;;;;;0.20;0.20;;;;;;;22.84;44.97;101381.91;5036126;28;20031;-89
2023/10/29 10:50:22;;;;;;;0.10;0.10;;;;;;;22.73;44.51;101374.06;5019572;28;20032;-90
2023/10/29 10:52:49;;;;;;;0.20;0.20;;;;;;;22.83;44.81;101387.28;5052667;28;20036;-89
2023/10/29 10:55:15;;;;;;;0.20;0.20;;;;;;;22.87;44.48;101386.88;5019781;28;20033;-90
2023/10/29 10:57:40;;;;;;;0.20;0.20;;;;;;;23.05;44.56;101384.41;5036215;28;20025;-89
2023/10/29 11:00:10;;;;;;;0.10;0.10;;;;;;;23.07;43.51;101360.53;5035910;28;20035;-89
2023/10/29 11:02:36;;;;;;;0.20;0.20;;;;;;;23.28;43.44;101373.59;5037250;28;20032;-90
2023/10/29 11:05:04;;;;;;;0.10;0.10;;;;;;;23.28;42.82;101358.56;5036172;28;20479;-89
2023/10/29 11:07:30;;;;;;;0.20;0.20;;;;;;;23.35;43.30;101366.78;5036389;28;20482;-89
2023/10/29 11:09:56;;;;;;;0.20;0.20;;;;;;;23.33;42.97;101355.53;5036196;28;20458;-89
2023/10/29 11:12:22;;;;;;;0.20;0.20;;;;;;;23.33;43.49;101356.38;5019532;28;20075;-88
2023/10/29 11:15:19;;;;;;;0.10;0.10;;;;;;;23.29;42.86;101352.31;5034668;28;20049;-90
2023/10/29 11:17:54;;;;;;;0.20;0.20;;;;;;;23.22;42.05;101350.41;5036177;28;20025;-90
2023/10/29 11:20:45;;;;;;;0.20;0.20;;;;;;;23.07;41.72;101337.59;5036811;28;20041;-90
2023/10/29 11:23:16;;;;;;;0.20;0.20;;;;;;;23.03;41.40;101338.03;5021868;28;20040;-90